sensor_id;sensor_type;location;lat;lon;timestamp;temperature;humidity
37446;DHT22;23307;51.136;14.942;2023-05-10T00:02:04;11.80;82.80
37446;DHT22;23307;51.136;14.942;2023-05-10T00:04:29;11.70;83.10
37446;DHT22;23307;51.136;14.942;2023-05-10T00:06:55;11.70;83.20
37446;DHT22;23307;51.136;14.942;2023-05-10T00:09:20;11.70;83.40
37446;DHT22;23307;51.136;14.942;2023-05-10T00:11:46;11.60;83.50
37446;DHT22;23307;51.136;14.942;2023-05-10T00:14:11;11.60;83.70
37446;DHT22;23307;51.136;14.942;2023-05-10T00:16:37;11.60;84.00
37446;DHT22;23307;51.136;14.942;2023-05-10T00:19:02;11.70;84.30
37446;DHT22;23307;51.136;14.942;2023-05-10T00:21:28;11.70;84.20
37446;DHT22;23307;51.136;14.942;2023-05-10T00:23:54;11.80;84.10
37446;DHT22;23307;51.136;14.942;2023-05-10T00:26:19;11.90;84.20
37446;DHT22;23307;51.136;14.942;2023-05-10T00:28:45;12.00;84.20
37446;DHT22;23307;51.136;14.942;2023-05-10T00:31:11;12.10;84.20
37446;DHT22;23307;51.136;14.942;2023-05-10T00:33:36;12.20;83.80
37446;DHT22;23307;51.136;14.942;2023-05-10T00:36:02;12.30;83.60
37446;DHT22;23307;51.136;14.942;2023-05-10T00:38:27;12.40;83.20
37446;DHT22;23307;51.136;14.942;2023-05-10T00:40:53;12.50;83.00
37446;DHT22;23307;51.136;14.942;2023-05-10T00:43:18;12.60;82.80
37446;DHT22;23307;51.136;14.942;2023-05-10T00:45:44;12.60;82.70
37446;DHT22;23307;51.136;14.942;2023-05-10T00:48:10;12.70;82.60
37446;DHT22;23307;51.136;14.942;2023-05-10T00:50:35;12.70;82.40
37446;DHT22;23307;51.136;14.942;2023-05-10T00:53:02;12.70;82.30
37446;DHT22;23307;51.136;14.942;2023-05-10T00:55:28;12.70;82.30
37446;DHT22;23307;51.136;14.942;2023-05-10T00:57:53;12.80;82.30
37446;DHT22;23307;51.136;14.942;2023-05-10T01:00:19;12.80;82.50
37446;DHT22;23307;51.136;14.942;2023-05-10T01:02:45;12.80;82.70
37446;DHT22;23307;51.136;14.942;2023-05-10T01:05:12;12.80;82.60
37446;DHT22;23307;51.136;14.942;2023-05-10T01:07:37;12.80;82.80
37446;DHT22;23307;51.136;14.942;2023-05-10T01:10:03;12.80;82.80
37446;DHT22;23307;51.136;14.942;2023-05-10T01:12:29;12.80;83.00
37446;DHT22;23307;51.136;14.942;2023-05-10T01:14:54;12.80;82.80
37446;DHT22;23307;51.136;14.942;2023-05-10T01:17:21;12.80;82.90
37446;DHT22;23307;51.136;14.942;2023-05-10T01:19:47;12.80;82.90
37446;DHT22;23307;51.136;14.942;2023-05-10T01:33:59;12.90;83.60
37446;DHT22;23307;51.136;14.942;2023-05-10T01:36:32;12.90;83.70
37446;DHT22;23307;51.136;14.942;2023-05-10T01:39:25;12.90;83.70
37446;DHT22;23307;51.136;14.942;2023-05-10T01:49:43;13.00;84.50
37446;DHT22;23307;51.136;14.942;2023-05-10T01:52:12;12.90;84.60
37446;DHT22;23307;51.136;14.942;2023-05-10T01:54:42;12.90;85.70
37446;DHT22;23307;51.136;14.942;2023-05-10T01:57:09;12.90;85.20
37446;DHT22;23307;51.136;14.942;2023-05-10T01:59:38;12.90;85.50
37446;DHT22;23307;51.136;14.942;2023-05-10T02:02:06;12.90;85.90
37446;DHT22;23307;51.136;14.942;2023-05-10T02:04:35;12.90;86.10
37446;DHT22;23307;51.136;14.942;2023-05-10T02:07:03;12.90;86.30
37446;DHT22;23307;51.136;14.942;2023-05-10T02:09:30;12.90;86.30
37446;DHT22;23307;51.136;14.942;2023-05-10T02:11:58;12.90;86.60
37446;DHT22;23307;51.136;14.942;2023-05-10T02:14:25;12.80;86.90
37446;DHT22;23307;51.136;14.942;2023-05-10T02:16:53;12.90;86.90
37446;DHT22;23307;51.136;14.942;2023-05-10T02:19:21;12.90;87.00
37446;DHT22;23307;51.136;14.942;2023-05-10T02:21:49;12.90;87.00
37446;DHT22;23307;51.136;14.942;2023-05-10T02:24:16;13.00;87.20
37446;DHT22;23307;51.136;14.942;2023-05-10T02:26:44;13.00;87.30
37446;DHT22;23307;51.136;14.942;2023-05-10T02:29:11;12.90;87.40
37446;DHT22;23307;51.136;14.942;2023-05-10T02:31:37;13.00;87.40
37446;DHT22;23307;51.136;14.942;2023-05-10T02:34:04;13.00;87.70
37446;DHT22;23307;51.136;14.942;2023-05-10T02:36:31;13.00;87.70
37446;DHT22;23307;51.136;14.942;2023-05-10T02:38:58;13.00;88.00
37446;DHT22;23307;51.136;14.942;2023-05-10T02:41:25;13.00;88.20
37446;DHT22;23307;51.136;14.942;2023-05-10T02:43:55;13.00;88.40
37446;DHT22;23307;51.136;14.942;2023-05-10T02:46:22;13.00;88.60
37446;DHT22;23307;51.136;14.942;2023-05-10T02:48:48;13.00;88.60
37446;DHT22;23307;51.136;14.942;2023-05-10T02:51:15;13.10;88.50
37446;DHT22;23307;51.136;14.942;2023-05-10T02:53:43;13.10;88.60
37446;DHT22;23307;51.136;14.942;2023-05-10T02:56:15;13.10;88.80
37446;DHT22;23307;51.136;14.942;2023-05-10T02:58:45;13.10;89.00
37446;DHT22;23307;51.136;14.942;2023-05-10T03:01:11;13.10;88.90
37446;DHT22;23307;51.136;14.942;2023-05-10T03:03:36;13.10;89.10
37446;DHT22;23307;51.136;14.942;2023-05-10T03:06:02;13.10;89.20
37446;DHT22;23307;51.136;14.942;2023-05-10T03:08:28;13.10;89.20
37446;DHT22;23307;51.136;14.942;2023-05-10T03:13:44;13.10;89.30
37446;DHT22;23307;51.136;14.942;2023-05-10T03:16:22;13.00;89.50
37446;DHT22;23307;51.136;14.942;2023-05-10T03:19:09;12.90;89.70
37446;DHT22;23307;51.136;14.942;2023-05-10T03:21:38;12.90;89.40
37446;DHT22;23307;51.136;14.942;2023-05-10T03:24:07;12.80;89.60
37446;DHT22;23307;51.136;14.942;2023-05-10T03:26:33;12.80;90.00
37446;DHT22;23307;51.136;14.942;2023-05-10T03:29:00;12.70;90.10
37446;DHT22;23307;51.136;14.942;2023-05-10T03:31:26;12.70;90.20
37446;DHT22;23307;51.136;14.942;2023-05-10T03:33:52;12.70;90.30
37446;DHT22;23307;51.136;14.942;2023-05-10T03:36:19;12.60;90.40
37446;DHT22;23307;51.136;14.942;2023-05-10T03:38:44;12.60;90.60
37446;DHT22;23307;51.136;14.942;2023-05-10T03:41:10;12.60;90.70
37446;DHT22;23307;51.136;14.942;2023-05-10T03:43:35;12.60;90.80
37446;DHT22;23307;51.136;14.942;2023-05-10T03:46:03;12.50;91.00
37446;DHT22;23307;51.136;14.942;2023-05-10T03:48:28;12.50;91.00
37446;DHT22;23307;51.136;14.942;2023-05-10T03:50:54;12.50;91.20
37446;DHT22;23307;51.136;14.942;2023-05-10T03:53:20;12.50;91.30
37446;DHT22;23307;51.136;14.942;2023-05-10T03:55:46;12.50;91.50
37446;DHT22;23307;51.136;14.942;2023-05-10T03:58:11;12.50;91.70
37446;DHT22;23307;51.136;14.942;2023-05-10T04:00:37;12.50;91.80
37446;DHT22;23307;51.136;14.942;2023-05-10T04:03:09;12.50;92.00
37446;DHT22;23307;51.136;14.942;2023-05-10T04:05:34;12.50;92.20
37446;DHT22;23307;51.136;14.942;2023-05-10T04:08:00;12.50;92.30
37446;DHT22;23307;51.136;14.942;2023-05-10T04:10:26;12.50;92.30
37446;DHT22;23307;51.136;14.942;2023-05-10T04:12:51;12.50;92.40
37446;DHT22;23307;51.136;14.942;2023-05-10T04:15:17;12.50;92.60
37446;DHT22;23307;51.136;14.942;2023-05-10T04:17:42;12.60;92.80
37446;DHT22;23307;51.136;14.942;2023-05-10T04:20:08;12.60;92.90
37446;DHT22;23307;51.136;14.942;2023-05-10T04:22:34;12.70;93.10
37446;DHT22;23307;51.136;14.942;2023-05-10T04:24:59;12.70;93.40
37446;DHT22;23307;51.136;14.942;2023-05-10T04:27:25;12.80;93.60
37446;DHT22;23307;51.136;14.942;2023-05-10T04:29:50;12.80;93.60
37446;DHT22;23307;51.136;14.942;2023-05-10T04:32:16;12.90;93.70
37446;DHT22;23307;51.136;14.942;2023-05-10T04:34:43;12.90;93.70
37446;DHT22;23307;51.136;14.942;2023-05-10T04:37:08;12.90;93.80
37446;DHT22;23307;51.136;14.942;2023-05-10T04:39:34;12.90;93.90
37446;DHT22;23307;51.136;14.942;2023-05-10T04:42:00;13.00;93.90
37446;DHT22;23307;51.136;14.942;2023-05-10T04:44:28;13.10;94.10
37446;DHT22;23307;51.136;14.942;2023-05-10T04:46:53;13.10;94.10
37446;DHT22;23307;51.136;14.942;2023-05-10T04:49:19;13.20;94.20
37446;DHT22;23307;51.136;14.942;2023-05-10T04:51:45;13.20;94.30
37446;DHT22;23307;51.136;14.942;2023-05-10T04:54:10;13.30;94.50
37446;DHT22;23307;51.136;14.942;2023-05-10T04:56:36;13.30;94.70
37446;DHT22;23307;51.136;14.942;2023-05-10T04:59:01;13.40;94.70
37446;DHT22;23307;51.136;14.942;2023-05-10T05:01:27;13.40;94.90
37446;DHT22;23307;51.136;14.942;2023-05-10T05:03:53;13.50;95.10
37446;DHT22;23307;51.136;14.942;2023-05-10T05:06:19;13.60;95.30
37446;DHT22;23307;51.136;14.942;2023-05-10T05:08:46;13.60;95.40
37446;DHT22;23307;51.136;14.942;2023-05-10T05:11:11;13.70;95.30
37446;DHT22;23307;51.136;14.942;2023-05-10T05:13:37;13.80;95.60
37446;DHT22;23307;51.136;14.942;2023-05-10T05:16:02;13.80;95.30
37446;DHT22;23307;51.136;14.942;2023-05-10T05:18:28;14.00;95.50
37446;DHT22;23307;51.136;14.942;2023-05-10T05:20:54;14.10;95.40
37446;DHT22;23307;51.136;14.942;2023-05-10T05:23:19;14.10;95.40
37446;DHT22;23307;51.136;14.942;2023-05-10T05:25:46;14.20;95.30
37446;DHT22;23307;51.136;14.942;2023-05-10T05:28:11;14.30;95.40
37446;DHT22;23307;51.136;14.942;2023-05-10T05:30:37;14.40;95.50
37446;DHT22;23307;51.136;14.942;2023-05-10T05:33:03;14.40;95.80
37446;DHT22;23307;51.136;14.942;2023-05-10T05:35:28;14.40;95.30
37446;DHT22;23307;51.136;14.942;2023-05-10T05:37:54;14.50;95.20
37446;DHT22;23307;51.136;14.942;2023-05-10T05:40:19;14.60;95.20
37446;DHT22;23307;51.136;14.942;2023-05-10T05:42:45;14.70;94.80
37446;DHT22;23307;51.136;14.942;2023-05-10T05:45:11;14.80;95.00
37446;DHT22;23307;51.136;14.942;2023-05-10T05:47:39;14.90;94.80
37446;DHT22;23307;51.136;14.942;2023-05-10T05:50:05;15.00;94.90
37446;DHT22;23307;51.136;14.942;2023-05-10T05:52:30;15.10;94.70
37446;DHT22;23307;51.136;14.942;2023-05-10T05:54:56;15.20;94.10
37446;DHT22;23307;51.136;14.942;2023-05-10T05:57:21;15.20;93.80
37446;DHT22;23307;51.136;14.942;2023-05-10T05:59:48;15.30;93.80
37446;DHT22;23307;51.136;14.942;2023-05-10T06:02:13;15.40;93.20
37446;DHT22;23307;51.136;14.942;2023-05-10T06:04:39;15.40;93.20
37446;DHT22;23307;51.136;14.942;2023-05-10T06:07:04;15.50;93.30
37446;DHT22;23307;51.136;14.942;2023-05-10T06:09:30;15.60;93.30
37446;DHT22;23307;51.136;14.942;2023-05-10T06:11:55;15.70;92.90
37446;DHT22;23307;51.136;14.942;2023-05-10T06:14:21;15.80;92.80
37446;DHT22;23307;51.136;14.942;2023-05-10T06:16:47;15.80;92.40
37446;DHT22;23307;51.136;14.942;2023-05-10T06:19:12;15.80;92.00
37446;DHT22;23307;51.136;14.942;2023-05-10T06:21:38;15.90;92.10
37446;DHT22;23307;51.136;14.942;2023-05-10T06:24:04;15.90;92.50
37446;DHT22;23307;51.136;14.942;2023-05-10T06:26:30;16.00;92.30
37446;DHT22;23307;51.136;14.942;2023-05-10T06:28:56;16.10;92.10
37446;DHT22;23307;51.136;14.942;2023-05-10T06:31:21;16.10;92.40
37446;DHT22;23307;51.136;14.942;2023-05-10T06:33:47;16.20;92.40
37446;DHT22;23307;51.136;14.942;2023-05-10T06:36:12;16.30;92.30
37446;DHT22;23307;51.136;14.942;2023-05-10T06:38:38;16.40;92.00
37446;DHT22;23307;51.136;14.942;2023-05-10T06:41:04;16.40;92.10
37446;DHT22;23307;51.136;14.942;2023-05-10T06:43:29;16.50;91.80
37446;DHT22;23307;51.136;14.942;2023-05-10T06:45:55;16.60;91.40
37446;DHT22;23307;51.136;14.942;2023-05-10T06:48:21;16.70;91.30
37446;DHT22;23307;51.136;14.942;2023-05-10T06:50:46;16.80;91.30
37446;DHT22;23307;51.136;14.942;2023-05-10T06:53:12;16.90;91.30
37446;DHT22;23307;51.136;14.942;2023-05-10T06:55:38;16.90;90.50
37446;DHT22;23307;51.136;14.942;2023-05-10T06:58:04;17.00;90.50
37446;DHT22;23307;51.136;14.942;2023-05-10T07:00:29;17.00;90.60
37446;DHT22;23307;51.136;14.942;2023-05-10T07:02:55;17.10;90.50
37446;DHT22;23307;51.136;14.942;2023-05-10T07:05:21;17.10;89.90
37446;DHT22;23307;51.136;14.942;2023-05-10T07:07:47;17.20;90.00
37446;DHT22;23307;51.136;14.942;2023-05-10T07:10:12;17.20;89.10
37446;DHT22;23307;51.136;14.942;2023-05-10T07:12:38;17.20;89.30
37446;DHT22;23307;51.136;14.942;2023-05-10T07:15:04;17.30;90.30
37446;DHT22;23307;51.136;14.942;2023-05-10T07:17:30;17.50;90.30
37446;DHT22;23307;51.136;14.942;2023-05-10T07:19:56;17.50;89.50
37446;DHT22;23307;51.136;14.942;2023-05-10T07:22:21;17.60;89.90
37446;DHT22;23307;51.136;14.942;2023-05-10T07:24:47;17.70;89.10
37446;DHT22;23307;51.136;14.942;2023-05-10T07:27:13;17.80;88.80
37446;DHT22;23307;51.136;14.942;2023-05-10T07:29:38;17.90;87.60
37446;DHT22;23307;51.136;14.942;2023-05-10T07:32:04;17.90;87.30
37446;DHT22;23307;51.136;14.942;2023-05-10T07:34:31;17.90;86.80
37446;DHT22;23307;51.136;14.942;2023-05-10T07:37:00;18.00;86.60
37446;DHT22;23307;51.136;14.942;2023-05-10T07:39:27;18.10;86.10
37446;DHT22;23307;51.136;14.942;2023-05-10T07:41:53;18.20;85.60
37446;DHT22;23307;51.136;14.942;2023-05-10T07:44:18;18.20;84.80
37446;DHT22;23307;51.136;14.942;2023-05-10T07:46:45;18.20;85.90
37446;DHT22;23307;51.136;14.942;2023-05-10T07:49:11;18.30;85.00
37446;DHT22;23307;51.136;14.942;2023-05-10T07:51:37;18.30;83.80
37446;DHT22;23307;51.136;14.942;2023-05-10T07:54:02;18.40;84.50
37446;DHT22;23307;51.136;14.942;2023-05-10T07:56:30;18.50;85.00
37446;DHT22;23307;51.136;14.942;2023-05-10T07:59:00;18.70;85.30
37446;DHT22;23307;51.136;14.942;2023-05-10T08:01:29;18.80;83.80
37446;DHT22;23307;51.136;14.942;2023-05-10T08:03:55;18.80;84.10
37446;DHT22;23307;51.136;14.942;2023-05-10T08:06:22;19.00;83.60
37446;DHT22;23307;51.136;14.942;2023-05-10T08:08:48;19.00;82.30
37446;DHT22;23307;51.136;14.942;2023-05-10T08:11:16;19.10;82.60
37446;DHT22;23307;51.136;14.942;2023-05-10T08:13:42;19.10;82.30
37446;DHT22;23307;51.136;14.942;2023-05-10T08:16:11;19.20;81.20
37446;DHT22;23307;51.136;14.942;2023-05-10T08:18:37;19.30;82.00
37446;DHT22;23307;51.136;14.942;2023-05-10T08:21:03;19.30;82.20
37446;DHT22;23307;51.136;14.942;2023-05-10T08:23:29;19.50;82.90
37446;DHT22;23307;51.136;14.942;2023-05-10T08:25:54;19.50;81.70
37446;DHT22;23307;51.136;14.942;2023-05-10T08:28:20;19.60;81.70
37446;DHT22;23307;51.136;14.942;2023-05-10T08:30:45;19.70;81.70
37446;DHT22;23307;51.136;14.942;2023-05-10T08:33:11;19.80;80.00
37446;DHT22;23307;51.136;14.942;2023-05-10T08:35:36;19.90;80.20
37446;DHT22;23307;51.136;14.942;2023-05-10T08:38:02;19.90;79.00
37446;DHT22;23307;51.136;14.942;2023-05-10T08:40:27;19.90;78.60
37446;DHT22;23307;51.136;14.942;2023-05-10T08:43:05;20.00;78.70
37446;DHT22;23307;51.136;14.942;2023-05-10T08:45:33;20.10;79.10
37446;DHT22;23307;51.136;14.942;2023-05-10T08:48:02;20.20;79.60
37446;DHT22;23307;51.136;14.942;2023-05-10T08:50:27;20.30;79.10
37446;DHT22;23307;51.136;14.942;2023-05-10T08:52:58;20.40;77.60
37446;DHT22;23307;51.136;14.942;2023-05-10T08:55:25;20.40;76.80
37446;DHT22;23307;51.136;14.942;2023-05-10T08:57:51;20.40;78.60
37446;DHT22;23307;51.136;14.942;2023-05-10T09:00:17;20.50;78.40
37446;DHT22;23307;51.136;14.942;2023-05-10T09:02:43;20.70;79.20
37446;DHT22;23307;51.136;14.942;2023-05-10T09:05:11;20.80;79.20
37446;DHT22;23307;51.136;14.942;2023-05-10T09:07:37;20.90;78.40
37446;DHT22;23307;51.136;14.942;2023-05-10T09:10:04;21.00;78.70
37446;DHT22;23307;51.136;14.942;2023-05-10T09:12:30;21.10;76.90
37446;DHT22;23307;51.136;14.942;2023-05-10T09:14:56;21.10;74.40
37446;DHT22;23307;51.136;14.942;2023-05-10T09:17:24;21.00;74.80
37446;DHT22;23307;51.136;14.942;2023-05-10T09:20:00;21.00;74.30
37446;DHT22;23307;51.136;14.942;2023-05-10T09:22:26;21.10;74.80
37446;DHT22;23307;51.136;14.942;2023-05-10T09:25:14;21.10;75.10
37446;DHT22;23307;51.136;14.942;2023-05-10T09:27:45;21.20;75.30
37446;DHT22;23307;51.136;14.942;2023-05-10T09:30:23;21.30;75.20
37446;DHT22;23307;51.136;14.942;2023-05-10T09:32:49;21.40;75.60
37446;DHT22;23307;51.136;14.942;2023-05-10T09:35:17;21.50;74.90
37446;DHT22;23307;51.136;14.942;2023-05-10T09:37:45;21.70;74.70
37446;DHT22;23307;51.136;14.942;2023-05-10T09:40:17;21.80;74.10
37446;DHT22;23307;51.136;14.942;2023-05-10T09:42:51;21.90;73.70
37446;DHT22;23307;51.136;14.942;2023-05-10T09:45:17;21.90;73.00
37446;DHT22;23307;51.136;14.942;2023-05-10T09:47:43;22.00;73.30
37446;DHT22;23307;51.136;14.942;2023-05-10T09:50:09;22.00;72.30
37446;DHT22;23307;51.136;14.942;2023-05-10T09:55:24;22.20;73.30
37446;DHT22;23307;51.136;14.942;2023-05-10T09:58:01;22.30;72.70
37446;DHT22;23307;51.136;14.942;2023-05-10T10:00:28;22.40;72.60
37446;DHT22;23307;51.136;14.942;2023-05-10T10:02:57;22.40;71.50
37446;DHT22;23307;51.136;14.942;2023-05-10T10:05:34;22.40;71.10
37446;DHT22;23307;51.136;14.942;2023-05-10T10:08:01;22.50;72.40
37446;DHT22;23307;51.136;14.942;2023-05-10T10:10:27;22.50;72.50
37446;DHT22;23307;51.136;14.942;2023-05-10T10:12:54;22.50;72.30
37446;DHT22;23307;51.136;14.942;2023-05-10T10:15:24;22.50;73.30
37446;DHT22;23307;51.136;14.942;2023-05-10T10:17:50;22.60;73.00
37446;DHT22;23307;51.136;14.942;2023-05-10T10:20:17;22.70;71.10
37446;DHT22;23307;51.136;14.942;2023-05-10T10:22:42;22.70;71.60
37446;DHT22;23307;51.136;14.942;2023-05-10T10:25:12;22.80;72.00
37446;DHT22;23307;51.136;14.942;2023-05-10T10:33:13;22.90;71.00
37446;DHT22;23307;51.136;14.942;2023-05-10T10:35:44;23.00;72.20
37446;DHT22;23307;51.136;14.942;2023-05-10T10:38:12;23.20;71.00
37446;DHT22;23307;51.136;14.942;2023-05-10T10:40:38;23.20;69.90
37446;DHT22;23307;51.136;14.942;2023-05-10T10:43:24;23.40;70.60
37446;DHT22;23307;51.136;14.942;2023-05-10T10:46:23;23.60;71.00
37446;DHT22;23307;51.136;14.942;2023-05-10T10:49:07;23.60;71.30
37446;DHT22;23307;51.136;14.942;2023-05-10T10:51:37;23.70;69.10
37446;DHT22;23307;51.136;14.942;2023-05-10T10:54:10;23.80;69.30
37446;DHT22;23307;51.136;14.942;2023-05-10T10:56:35;23.80;68.60
37446;DHT22;23307;51.136;14.942;2023-05-10T10:59:01;23.90;70.50
37446;DHT22;23307;51.136;14.942;2023-05-10T11:01:33;23.90;70.00
37446;DHT22;23307;51.136;14.942;2023-05-10T11:06:36;24.00;68.00
37446;DHT22;23307;51.136;14.942;2023-05-10T11:09:10;23.90;67.90
37446;DHT22;23307;51.136;14.942;2023-05-10T11:11:53;23.80;69.40
37446;DHT22;23307;51.136;14.942;2023-05-10T11:14:23;24.00;69.00
37446;DHT22;23307;51.136;14.942;2023-05-10T11:16:49;24.10;69.70
37446;DHT22;23307;51.136;14.942;2023-05-10T11:19:15;24.20;69.70
37446;DHT22;23307;51.136;14.942;2023-05-10T11:21:50;24.40;67.00
37446;DHT22;23307;51.136;14.942;2023-05-10T11:24:18;24.30;68.00
37446;DHT22;23307;51.136;14.942;2023-05-10T11:26:44;24.50;69.00
37446;DHT22;23307;51.136;14.942;2023-05-10T11:29:12;24.70;67.80
37446;DHT22;23307;51.136;14.942;2023-05-10T11:31:44;24.80;68.80
37446;DHT22;23307;51.136;14.942;2023-05-10T11:34:10;25.00;68.70
37446;DHT22;23307;51.136;14.942;2023-05-10T11:36:36;25.00;68.10
37446;DHT22;23307;51.136;14.942;2023-05-10T11:39:03;25.20;66.40
37446;DHT22;23307;51.136;14.942;2023-05-10T11:41:30;25.30;66.70
37446;DHT22;23307;51.136;14.942;2023-05-10T11:43:57;25.40;64.00
37446;DHT22;23307;51.136;14.942;2023-05-10T11:46:24;25.20;64.10
37446;DHT22;23307;51.136;14.942;2023-05-10T11:48:52;25.40;65.70
37446;DHT22;23307;51.136;14.942;2023-05-10T11:51:22;25.40;64.70
37446;DHT22;23307;51.136;14.942;2023-05-10T11:53:51;25.30;65.40
37446;DHT22;23307;51.136;14.942;2023-05-10T11:56:17;25.20;65.70
37446;DHT22;23307;51.136;14.942;2023-05-10T11:58:43;25.50;65.30
37446;DHT22;23307;51.136;14.942;2023-05-10T12:01:09;25.60;64.10
37446;DHT22;23307;51.136;14.942;2023-05-10T12:03:38;25.70;64.00
37446;DHT22;23307;51.136;14.942;2023-05-10T12:06:05;25.70;63.50
37446;DHT22;23307;51.136;14.942;2023-05-10T12:08:31;25.90;63.00
37446;DHT22;23307;51.136;14.942;2023-05-10T12:11:08;25.70;61.20
37446;DHT22;23307;51.136;14.942;2023-05-10T12:13:39;25.20;61.30
37446;DHT22;23307;51.136;14.942;2023-05-10T12:16:17;25.20;63.70
37446;DHT22;23307;51.136;14.942;2023-05-10T12:18:44;25.50;62.50
37446;DHT22;23307;51.136;14.942;2023-05-10T12:21:11;25.70;62.40
37446;DHT22;23307;51.136;14.942;2023-05-10T12:23:40;26.00;63.10
37446;DHT22;23307;51.136;14.942;2023-05-10T12:26:08;26.30;61.00
37446;DHT22;23307;51.136;14.942;2023-05-10T12:28:33;26.40;60.40
37446;DHT22;23307;51.136;14.942;2023-05-10T12:30:59;26.40;60.70
37446;DHT22;23307;51.136;14.942;2023-05-10T12:33:25;26.50;60.30
37446;DHT22;23307;51.136;14.942;2023-05-10T12:35:52;26.60;60.70
37446;DHT22;23307;51.136;14.942;2023-05-10T12:38:26;26.70;61.40
37446;DHT22;23307;51.136;14.942;2023-05-10T12:40:52;26.40;61.50
37446;DHT22;23307;51.136;14.942;2023-05-10T12:43:17;26.30;60.50
37446;DHT22;23307;51.136;14.942;2023-05-10T12:45:43;25.90;60.00
37446;DHT22;23307;51.136;14.942;2023-05-10T12:48:13;25.60;60.40
37446;DHT22;23307;51.136;14.942;2023-05-10T12:50:38;25.10;60.80
37446;DHT22;23307;51.136;14.942;2023-05-10T12:53:04;25.30;62.20
37446;DHT22;23307;51.136;14.942;2023-05-10T12:58:37;25.60;61.10
37446;DHT22;23307;51.136;14.942;2023-05-10T13:01:04;25.30;60.70
37446;DHT22;23307;51.136;14.942;2023-05-10T13:03:30;25.00;61.30
37446;DHT22;23307;51.136;14.942;2023-05-10T13:05:55;24.70;62.00
37446;DHT22;23307;51.136;14.942;2023-05-10T13:08:21;24.70;64.20
37446;DHT22;23307;51.136;14.942;2023-05-10T13:10:46;24.80;64.40
37446;DHT22;23307;51.136;14.942;2023-05-10T13:13:12;25.00;64.30
37446;DHT22;23307;51.136;14.942;2023-05-10T13:15:38;25.00;63.30
37446;DHT22;23307;51.136;14.942;2023-05-10T13:18:03;24.70;63.00
37446;DHT22;23307;51.136;14.942;2023-05-10T13:20:29;24.70;63.70
37446;DHT22;23307;51.136;14.942;2023-05-10T13:22:54;24.60;62.30
37446;DHT22;23307;51.136;14.942;2023-05-10T13:25:19;24.50;63.00
37446;DHT22;23307;51.136;14.942;2023-05-10T13:27:45;24.20;62.50
37446;DHT22;23307;51.136;14.942;2023-05-10T13:30:11;24.00;63.10
37446;DHT22;23307;51.136;14.942;2023-05-10T13:32:37;24.00;64.70
37446;DHT22;23307;51.136;14.942;2023-05-10T13:35:03;24.70;65.00
37446;DHT22;23307;51.136;14.942;2023-05-10T13:37:30;25.10;63.50
37446;DHT22;23307;51.136;14.942;2023-05-10T13:39:55;25.10;61.70
37446;DHT22;23307;51.136;14.942;2023-05-10T13:42:22;24.80;60.80
37446;DHT22;23307;51.136;14.942;2023-05-10T13:44:48;24.80;62.40
37446;DHT22;23307;51.136;14.942;2023-05-10T13:47:14;24.90;63.60
37446;DHT22;23307;51.136;14.942;2023-05-10T13:49:39;25.10;63.10
37446;DHT22;23307;51.136;14.942;2023-05-10T13:52:05;25.60;62.90
37446;DHT22;23307;51.136;14.942;2023-05-10T13:54:37;25.70;62.50
37446;DHT22;23307;51.136;14.942;2023-05-10T13:57:03;25.90;62.30
37446;DHT22;23307;51.136;14.942;2023-05-10T13:59:29;26.30;62.60
37446;DHT22;23307;51.136;14.942;2023-05-10T14:01:57;26.80;62.30
37446;DHT22;23307;51.136;14.942;2023-05-10T14:04:22;27.30;60.20
37446;DHT22;23307;51.136;14.942;2023-05-10T14:06:48;27.70;58.70
37446;DHT22;23307;51.136;14.942;2023-05-10T14:09:13;27.90;58.30
37446;DHT22;23307;51.136;14.942;2023-05-10T14:11:39;27.80;57.30
37446;DHT22;23307;51.136;14.942;2023-05-10T14:14:11;27.20;57.40
37446;DHT22;23307;51.136;14.942;2023-05-10T14:16:36;26.70;59.00
37446;DHT22;23307;51.136;14.942;2023-05-10T14:19:02;26.40;59.00
37446;DHT22;23307;51.136;14.942;2023-05-10T14:21:28;26.10;60.30
37446;DHT22;23307;51.136;14.942;2023-05-10T14:23:56;25.70;60.00
37446;DHT22;23307;51.136;14.942;2023-05-10T14:26:22;25.50;60.80
37446;DHT22;23307;51.136;14.942;2023-05-10T14:28:48;25.60;61.40
37446;DHT22;23307;51.136;14.942;2023-05-10T14:31:13;26.20;62.20
37446;DHT22;23307;51.136;14.942;2023-05-10T14:33:40;26.60;60.50
37446;DHT22;23307;51.136;14.942;2023-05-10T14:36:06;27.20;59.50
37446;DHT22;23307;51.136;14.942;2023-05-10T14:38:32;27.60;57.60
37446;DHT22;23307;51.136;14.942;2023-05-10T14:40:58;27.70;58.30
37446;DHT22;23307;51.136;14.942;2023-05-10T14:43:23;27.70;57.90
37446;DHT22;23307;51.136;14.942;2023-05-10T14:45:49;27.80;57.20
37446;DHT22;23307;51.136;14.942;2023-05-10T14:48:14;27.80;57.10
37446;DHT22;23307;51.136;14.942;2023-05-10T14:50:43;27.40;57.00
37446;DHT22;23307;51.136;14.942;2023-05-10T14:53:08;27.50;58.50
37446;DHT22;23307;51.136;14.942;2023-05-10T14:55:34;27.70;57.00
37446;DHT22;23307;51.136;14.942;2023-05-10T14:58:01;27.30;55.90
37446;DHT22;23307;51.136;14.942;2023-05-10T15:00:28;27.20;56.70
37446;DHT22;23307;51.136;14.942;2023-05-10T15:02:54;26.70;56.70
37446;DHT22;23307;51.136;14.942;2023-05-10T15:05:20;26.50;57.70
37446;DHT22;23307;51.136;14.942;2023-05-10T15:07:45;26.20;57.40
37446;DHT22;23307;51.136;14.942;2023-05-10T15:10:11;26.10;59.00
37446;DHT22;23307;51.136;14.942;2023-05-10T15:12:37;26.50;59.40
37446;DHT22;23307;51.136;14.942;2023-05-10T15:15:03;26.90;58.00
37446;DHT22;23307;51.136;14.942;2023-05-10T15:17:29;27.20;58.00
37446;DHT22;23307;51.136;14.942;2023-05-10T15:19:54;27.30;57.00
37446;DHT22;23307;51.136;14.942;2023-05-10T15:22:20;27.30;57.30
37446;DHT22;23307;51.136;14.942;2023-05-10T15:24:46;27.40;57.20
37446;DHT22;23307;51.136;14.942;2023-05-10T15:27:11;27.20;56.60
37446;DHT22;23307;51.136;14.942;2023-05-10T15:29:37;27.00;57.20
37446;DHT22;23307;51.136;14.942;2023-05-10T15:32:03;26.90;57.80
37446;DHT22;23307;51.136;14.942;2023-05-10T15:34:29;26.90;58.00
37446;DHT22;23307;51.136;14.942;2023-05-10T15:36:54;27.00;58.10
37446;DHT22;23307;51.136;14.942;2023-05-10T15:39:20;26.90;57.70
37446;DHT22;23307;51.136;14.942;2023-05-10T15:41:45;26.90;58.70
37446;DHT22;23307;51.136;14.942;2023-05-10T15:44:12;26.90;58.10
37446;DHT22;23307;51.136;14.942;2023-05-10T15:46:38;26.70;58.10
37446;DHT22;23307;51.136;14.942;2023-05-10T15:49:03;26.50;58.80
37446;DHT22;23307;51.136;14.942;2023-05-10T15:51:29;26.30;58.00